Carnival Pride — H3VU — position and weather

sailwx.info

Track history (hours):
 
Tides and Currents Weather Stations Pressure Air Temp Water Temp Dewpoint Dewpoint Depression Visibility Wind Speed Wind Dir Waves Ship Positions

Carnival Pride

Operator: Carnival Cruise Lines

Last reported at 2015-May-23 10:00 UTC. Time now 2015-May-23 14:49 UTC.
Position N 32°12' W 078°24'.

Type: Ship. MMSI: 354215000.

Wind from 070 at 25 knots

Waves 1.0 meters (3 feet), 5 second period

Barometer 1026.0 mb
Air temperature 22.0 ° C
Visibility: greater than 5.4 NM
Dewpoint 16.0 ° C
Water temperature 30.0 ° C

Date/timePositionNaut miles runAvg speedWind from/ knotsBaromVisibWave heightAir tempDewpointWater temp
2015-May-23 10:00N 32°12' W 078°24'27022.7 070 / 251026.0 5.4 1.022.016.030.0
2015-May-22 22:03N 27°48' W 079°33'1825.1
2015-May-22 21:20N 27°31' W 079°28'2024.5
2015-May-22 20:32N 27°12' W 079°21'2623.2
2015-May-22 19:24N 26°48' W 079°10'2221.3
2015-May-22 18:23N 26°31' W 078°54'7 0.9
2015-May-22 10:33N 26°31' W 078°46'10 9.0
2015-May-22 09:28N 26°22' W 078°43'  
2015-May-19 10:00N 28°24' W 078°06'56318.2 270 / 51020.0 2.2 0.522.016.030.0
2015-May-18 03:04N 37°38' W 076°07'7819.5
2015-May-17 23:04N 38°55' W 076°23'915.5
2015-May-17 22:28N 39°04' W 076°24'1011.4
2015-May-17 21:33N 39°13' W 076°31'5 4.7
2015-May-17 20:33N 39°16' W 076°36'0 0.0
2015-May-17 19:33N 39°16' W 076°36'0 0.0
2015-May-17 18:33N 39°16' W 076°36'0 0.0
2015-May-17 17:30N 39°16' W 076°36'0 0.0
2015-May-17 16:33N 39°16' W 076°36'0 0.0
2015-May-17 15:30N 39°16' W 076°36'0 0.0
2015-May-17 14:33N 39°16' W 076°36'0 0.0
2015-May-17 13:33N 39°16' W 076°36'0 0.0
2015-May-17 12:32N 39°16' W 076°36'4 3.6
2015-May-17 11:33N 39°14' W 076°32'1211.4
2015-May-17 10:32N 39°04' W 076°24'1515.0
2015-May-17 09:33N 38°50' W 076°24'4418.7
2015-May-17 07:11N 38°06' W 076°13'36317.1
2015-May-16 10:00N 32°18' W 078°18'385 8.0 130 / 101025.010.8 0.522.014.030.0
2015-May-14 10:00N 25°54' W 077°42'3222.1 090 / 201021.0 5.4 1.025.022.020.0
2015-May-14 08:33N 26°10' W 078°13'2218.9
2015-May-14 07:22N 26°18' W 078°36'166 7.9
2015-May-13 10:13N 28°25' W 080°37'  
Track history (hours):
 
Tides and Currents Weather Stations Pressure Air Temp Water Temp Dewpoint Dewpoint Depression Visibility Wind Speed Wind Dir Waves Ship Positions

Carnival Pride

Operator: Carnival Cruise Lines

Last reported at 2015-May-23 10:00 UTC. Time now 2015-May-23 14:49 UTC.
Position N 32°12' W 078°24'.

Type: Ship. MMSI: 354215000.

Wind from 070 at 25 knots

Waves 1.0 meters (3 feet), 5 second period

Barometer 1026.0 mb
Air temperature 22.0 ° C
Visibility: greater than 5.4 NM
Dewpoint 16.0 ° C
Water temperature 30.0 ° C

Date/timePositionNaut miles runAvg speedWind from/ knotsBaromVisibWave heightAir tempDewpointWater temp
2015-May-23 10:00N 32°12' W 078°24'27022.7 070 / 251026.0 5.4 1.022.016.030.0
2015-May-22 22:03N 27°48' W 079°33'1825.1
2015-May-22 21:20N 27°31' W 079°28'2024.5
2015-May-22 20:32N 27°12' W 079°21'2623.2
2015-May-22 19:24N 26°48' W 079°10'2221.3
2015-May-22 18:23N 26°31' W 078°54'7 0.9
2015-May-22 10:33N 26°31' W 078°46'10 9.0
2015-May-22 09:28N 26°22' W 078°43'  
2015-May-19 10:00N 28°24' W 078°06'56318.2 270 / 51020.0 2.2 0.522.016.030.0
2015-May-18 03:04N 37°38' W 076°07'7819.5
2015-May-17 23:04N 38°55' W 076°23'915.5
2015-May-17 22:28N 39°04' W 076°24'1011.4
2015-May-17 21:33N 39°13' W 076°31'5 4.7
2015-May-17 20:33N 39°16' W 076°36'0 0.0
2015-May-17 19:33N 39°16' W 076°36'0 0.0
2015-May-17 18:33N 39°16' W 076°36'0 0.0
2015-May-17 17:30N 39°16' W 076°36'0 0.0
2015-May-17 16:33N 39°16' W 076°36'0 0.0
2015-May-17 15:30N 39°16' W 076°36'0 0.0
2015-May-17 14:33N 39°16' W 076°36'0 0.0
2015-May-17 13:33N 39°16' W 076°36'0 0.0
2015-May-17 12:32N 39°16' W 076°36'4 3.6
2015-May-17 11:33N 39°14' W 076°32'1211.4
2015-May-17 10:32N 39°04' W 076°24'1515.0
2015-May-17 09:33N 38°50' W 076°24'4418.7
2015-May-17 07:11N 38°06' W 076°13'36317.1
2015-May-16 10:00N 32°18' W 078°18'385 8.0 130 / 101025.010.8 0.522.014.030.0
2015-May-14 10:00N 25°54' W 077°42'3222.1 090 / 201021.0 5.4 1.025.022.020.0
2015-May-14 08:33N 26°10' W 078°13'2218.9
2015-May-14 07:22N 26°18' W 078°36'166 7.9
2015-May-13 10:13N 28°25' W 080°37'  

Dump ship's entire track history